Time,TemperatureF,DewpointF,PressureIn,WindDirection,WindDirectionDegrees,WindSpeedMPH,WindSpeedGustMPH,Humidity,HourlyPrecipIn,Conditions,Clouds,dailyrainin,SoftwareType,DateUTC
2013-02-20 00:00:00,35.0,31.8,29.33,WSW,256,1.3,4.6,88,0.00,CLR,SCT,0.19,WeatherDisplay:10.37,2013-02-20 05:00:00,
2013-02-20 00:05:00,34.9,31.7,29.33,WNW,295,3.5,6.0,88,0.00,RA,SCT,0.00,WeatherDisplay:10.37,2013-02-20 05:05:00,
2013-02-20 00:10:00,34.7,31.5,29.32,WNW,284,3.5,4.6,88,0.00,CLR,SCT,0.00,WeatherDisplay:10.37,2013-02-20 05:10:00,
2013-02-20 00:15:00,34.5,31.0,29.32,West,271,3.6,9.2,87,0.00,CLR,SCT,0.00,WeatherDisplay:10.37,2013-02-20 05:15:00,
2013-02-20 00:20:00,34.3,30.5,29.33,SW,236,3.8,4.0,86,0.00,CLR,SCT,0.00,WeatherDisplay:10.37,2013-02-20 05:20:00,
2013-02-20 00:25:00,34.2,30.4,29.32,West,279,1.1,2.0,86,0.00,CLR,SCT,0.00,WeatherDisplay:10.37,2013-02-20 05:25:00,
2013-02-20 00:30:00,34.0,30.3,29.32,West,276,3.5,6.0,86,0.00,CLR,SCT,0.00,WeatherDisplay:10.37,2013-02-20 05:30:00,
2013-02-20 00:35:00,33.9,30.2,29.32,West,265,2.0,4.6,86,0.00,CLR,SCT,0.00,WeatherDisplay:10.37,2013-02-20 05:35:00,
2013-02-20 00:40:00,33.7,29.7,29.32,NW,318,4.3,5.8,85,0.00,CLR,SCT,0.00,WeatherDisplay:10.37,2013-02-20 05:40:00,
2013-02-20 00:45:00,33.6,29.6,29.32,SW,236,5.2,6.9,85,0.00,CLR,SCT,0.00,WeatherDisplay:10.37,2013-02-20 05:45:00,
2013-02-20 00:50:00,33.5,29.2,29.32,WSW,246,0.9,2.3,84,0.00,CLR,SCT,0.00,WeatherDisplay:10.37,2013-02-20 05:50:00,
2013-02-20 00:55:00,33.3,28.7,29.32,West,267,3.0,5.8,83,0.00,CLR,SCT,0.00,WeatherDisplay:10.37,2013-02-20 05:55:00,
2013-02-20 01:00:00,33.2,28.3,29.32,WSW,238,3.8,8.1,82,0.00,CLR,SCT,0.00,WeatherDisplay:10.37,2013-02-20 06:00:00,
2013-02-20 01:05:00,33.2,28.0,29.32,WNW,302,3.6,6.0,81,0.00,CLR,SCT,0.00,WeatherDisplay:10.37,2013-02-20 06:05:00,
2013-02-20 01:10:00,33.2,27.4,29.32,West,270,4.6,5.0,79,0.00,CLR,SCT,0.00,WeatherDisplay:10.37,2013-02-20 06:10:00,
2013-02-20 01:15:00,33.3,27.2,29.33,SSW,213,3.2,5.8,78,0.00,CLR,SCT,0.00,WeatherDisplay:10.37,2013-02-20 06:15:00,
2013-02-20 01:20:00,33.2,27.1,29.33,WSW,256,1.1,5.8,78,0.00,CLR,SCT,0.00,WeatherDisplay:10.37,2013-02-20 06:20:00,
2013-02-20 01:25:00,33.1,27.0,29.33,West,281,2.4,5.0,78,0.00,CLR,SCT,0.00,WeatherDisplay:10.37,2013-02-20 06:25:00,
2013-02-20 01:30:00,33.0,26.9,29.33,NNW,339,2.3,7.0,78,0.00,CLR,SCT,0.00,WeatherDisplay:10.37,2013-02-20 06:30:00,
2013-02-20 01:35:00,33.0,26.9,29.33,WSW,256,4.0,5.8,78,0.00,CLR,SCT,0.00,WeatherDisplay:10.37,2013-02-20 06:35:00,
2013-02-20 01:40:00,33.0,26.3,29.33,WSW,256,5.2,9.2,76,0.00,CLR,SCT,0.00,WeatherDisplay:10.37,2013-02-20 06:40:00,
2013-02-20 01:45:00,33.0,26.3,29.33,WNW,283,1.9,3.5,76,0.00,CLR,SCT,0.00,WeatherDisplay:10.37,2013-02-20 06:45:00,
2013-02-20 01:50:00,32.8,26.1,29.33,West,270,4.7,6.9,76,0.00,CLR,SCT,0.00,WeatherDisplay:10.37,2013-02-20 06:50:00,
2013-02-20 01:55:00,32.6,25.9,29.34,West,273,3.2,4.6,76,0.00,CLR,SCT,0.00,WeatherDisplay:10.37,2013-02-20 06:55:00,
2013-02-20 02:00:00,32.5,25.5,29.33,WNW,286,3.1,7.0,75,0.00,CLR,SCT,0.00,WeatherDisplay:10.37,2013-02-20 07:00:00,
2013-02-20 02:05:00,32.4,25.4,29.34,West,268,3.2,6.9,75,0.00,CLR,SCT,0.00,WeatherDisplay:10.37,2013-02-20 07:05:00,
2013-02-20 02:10:00,32.3,24.9,29.34,WSW,258,5.0,6.9,74,0.00,CLR,SCT,0.00,WeatherDisplay:10.37,2013-02-20 07:10:00,
2013-02-20 02:15:00,32.1,24.7,29.34,WSW,239,3.8,5.8,74,0.00,CLR,SCT,0.00,WeatherDisplay:10.37,2013-02-20 07:15:00,
2013-02-20 02:20:00,32.0,24.6,29.34,WNW,299,5.7,9.2,74,0.00,CLR,SCT,0.00,WeatherDisplay:10.37,2013-02-20 07:20:00,
2013-02-20 02:25:00,31.9,24.9,29.34,NW,309,2.3,4.0,75,0.00,CLR,SCT,0.00,WeatherDisplay:10.37,2013-02-20 07:25:00,
2013-02-20 02:30:00,31.7,24.7,29.34,NNW,331,5.4,11.5,75,0.00,CLR,SCT,0.00,WeatherDisplay:10.37,2013-02-20 07:30:00,
2013-02-20 02:35:00,31.5,24.5,29.34,NW,310,6.3,11.5,75,0.00,CLR,SCT,0.00,WeatherDisplay:10.37,2013-02-20 07:35:00,
2013-02-20 02:40:00,31.2,24.5,29.34,West,277,4.4,6.0,76,0.00,CLR,SCT,0.00,WeatherDisplay:10.37,2013-02-20 07:40:00,
2013-02-20 02:45:00,31.1,25.3,29.34,NW,324,2.5,4.6,79,0.00,CLR,SCT,0.00,WeatherDisplay:10.37,2013-02-20 07:45:00,
2013-02-20 02:50:00,30.9,24.5,29.34,WSW,250,3.8,5.8,77,0.00,CLR,SCT,0.00,WeatherDisplay:10.37,2013-02-20 07:50:00,
2013-02-20 02:55:00,30.9,24.5,29.34,WNW,298,2.6,4.0,77,0.00,CLR,SCT,0.00,WeatherDisplay:10.37,2013-02-20 07:55:00,
2013-02-20 03:00:00,30.8,24.4,29.34,West,275,2.7,4.6,77,0.00,CLR,SCT,0.00,WeatherDisplay:10.37,2013-02-20 08:00:00,
2013-02-20 03:05:00,30.8,24.7,29.34,WNW,298,3.1,5.0,78,0.00,CLR,SCT,0.00,WeatherDisplay:10.37,2013-02-20 08:05:00,
2013-02-20 03:10:00,30.9,24.5,29.34,West,279,2.3,4.6,77,0.00,CLR,SCT,0.00,WeatherDisplay:10.37,2013-02-20 08:10:00,
2013-02-20 03:15:00,30.9,24.8,29.34,West,279,1.3,2.3,78,0.00,CLR,SCT,0.00,WeatherDisplay:10.37,2013-02-20 08:15:00,
2013-02-20 03:20:00,30.8,24.4,29.34,NW,313,5.8,9.2,77,0.00,CLR,SCT,0.00,WeatherDisplay:10.37,2013-02-20 08:20:00,
2013-02-20 03:25:00,30.8,24.1,29.34,WSW,237,3.5,5.0,76,0.00,CLR,SCT,0.00,WeatherDisplay:10.37,2013-02-20 08:25:00,
2013-02-20 03:30:00,30.8,24.4,29.34,WNW,294,3.9,6.0,77,0.00,CLR,SCT,0.00,WeatherDisplay:10.37,2013-02-20 08:30:00,
2013-02-20 03:35:00,31.0,23.7,29.33,West,267,4.6,6.9,74,0.00,CLR,SCT,0.00,WeatherDisplay:10.37,2013-02-20 08:35:00,
2013-02-20 03:40:00,31.0,24.0,29.34,WNW,296,2.7,5.8,75,0.00,CLR,SCT,0.00,WeatherDisplay:10.37,2013-02-20 08:40:00,
2013-02-20 03:45:00,30.9,24.5,29.34,WNW,301,3.3,6.0,77,0.00,CLR,SCT,0.00,WeatherDisplay:10.37,2013-02-20 08:45:00,
2013-02-20 03:50:00,30.8,23.2,29.34,West,267,4.3,8.1,73,0.00,CLR,SCT,0.00,WeatherDisplay:10.37,2013-02-20 08:50:00,
2013-02-20 03:55:00,30.8,22.8,29.35,WNW,296,3.3,5.8,72,0.00,CLR,SCT,0.00,WeatherDisplay:10.37,2013-02-20 08:55:00,
2013-02-20 04:00:00,30.8,22.8,29.34,West,268,2.9,6.0,72,0.00,CLR,SCT,0.00,WeatherDisplay:10.37,2013-02-20 09:00:00,
2013-02-20 04:05:00,30.7,22.7,29.35,WNW,284,1.6,4.6,72,0.00,CLR,SCT,0.00,WeatherDisplay:10.37,2013-02-20 09:05:00,
2013-02-20 04:10:00,30.5,22.5,29.35,West,267,5.1,7.0,72,0.00,CLR,SCT,0.00,WeatherDisplay:10.37,2013-02-20 09:10:00,
2013-02-20 04:15:00,30.3,22.0,29.35,West,281,3.0,5.8,71,0.00,CLR,SCT,0.00,WeatherDisplay:10.37,2013-02-20 09:15:00,
2013-02-20 04:20:00,30.2,21.9,29.35,WNW,289,3.9,4.0,71,0.00,CLR,SCT,0.00,WeatherDisplay:10.37,2013-02-20 09:20:00,
2013-02-20 04:25:00,30.0,22.4,29.35,WNW,290,2.2,4.6,73,0.00,CLR,SCT,0.00,WeatherDisplay:10.37,2013-02-20 09:25:00,
2013-02-20 04:30:00,29.8,21.9,29.35,West,271,3.8,6.0,72,0.00,CLR,SCT,0.00,WeatherDisplay:10.37,2013-02-20 09:30:00,
2013-02-20 04:35:00,29.7,21.8,29.35,NW,313,2.8,3.5,72,0.00,CLR,SCT,0.00,WeatherDisplay:10.37,2013-02-20 09:35:00,
2013-02-20 04:40:00,29.5,22.2,29.36,WNW,284,3.0,4.6,74,0.00,CLR,SCT,0.00,WeatherDisplay:10.37,2013-02-20 09:40:00,
2013-02-20 04:45:00,29.4,22.1,29.36,WSW,255,2.8,6.9,74,0.00,CLR,SCT,0.00,WeatherDisplay:10.37,2013-02-20 09:45:00,
2013-02-20 04:50:00,29.3,21.4,29.36,WSW,255,4.8,5.8,72,0.00,CLR,SCT,0.00,WeatherDisplay:10.37,2013-02-20 09:50:00,
2013-02-20 04:55:00,29.4,21.5,29.37,WNW,299,4.5,9.2,72,0.00,CLR,SCT,0.00,WeatherDisplay:10.37,2013-02-20 09:55:00,
2013-02-20 05:00:00,29.3,21.4,29.37,West,265,5.1,6.9,72,0.00,CLR,SCT,0.00,WeatherDisplay:10.37,2013-02-20 10:00:00,
2013-02-20 05:05:00,29.3,21.4,29.37,NW,306,2.9,5.8,72,0.00,CLR,SCT,0.00,WeatherDisplay:10.37,2013-02-20 10:05:00,
2013-02-20 05:10:00,29.2,21.3,29.37,NW,306,4.8,9.2,72,0.00,CLR,SCT,0.00,WeatherDisplay:10.37,2013-02-20 10:10:00,
2013-02-20 05:15:00,29.1,21.5,29.37,WNW,295,4.5,8.0,73,0.00,CLR,SCT,0.00,WeatherDisplay:10.37,2013-02-20 10:15:00,
2013-02-20 05:20:00,29.0,20.4,29.37,WNW,290,6.2,10.4,70,0.00,CLR,SCT,0.00,WeatherDisplay:10.37,2013-02-20 10:20:00,
2013-02-20 05:25:00,28.8,20.2,29.37,NW,317,5.2,8.1,70,0.00,CLR,SCT,0.00,WeatherDisplay:10.37,2013-02-20 10:25:00,
2013-02-20 05:30:00,28.6,19.7,29.38,West,281,5.8,10.4,69,0.00,CLR,SCT,0.00,WeatherDisplay:10.37,2013-02-20 10:30:00,
2013-02-20 05:35:00,28.5,19.6,29.38,West,277,5.7,11.5,69,0.00,CLR,SCT,0.00,WeatherDisplay:10.37,2013-02-20 10:35:00,
2013-02-20 05:40:00,28.2,19.3,29.38,WNW,282,3.3,6.9,69,0.00,CLR,SCT,0.00,WeatherDisplay:10.37,2013-02-20 10:40:00,
2013-02-20 05:45:00,27.9,19.0,29.39,WNW,288,6.1,8.1,69,0.00,CLR,SCT,0.00,WeatherDisplay:10.37,2013-02-20 10:45:00,
2013-02-20 05:50:00,27.8,18.6,29.39,WNW,301,4.8,8.0,68,0.00,CLR,SCT,0.00,WeatherDisplay:10.37,2013-02-20 10:50:00,
2013-02-20 05:55:00,27.6,18.8,29.39,NW,306,4.7,6.0,69,0.00,CLR,SCT,0.00,WeatherDisplay:10.37,2013-02-20 10:55:00,
2013-02-20 06:00:00,27.4,17.9,29.39,NW,326,5.3,9.2,67,0.00,CLR,SCT,0.00,WeatherDisplay:10.37,2013-02-20 11:00:00,
2013-02-20 06:05:00,27.3,17.1,29.39,West,270,5.9,7.0,65,0.00,CLR,SCT,0.00,WeatherDisplay:10.37,2013-02-20 11:05:00,
2013-02-20 06:10:00,27.1,16.9,29.39,WNW,284,6.0,13.8,65,0.00,CLR,SCT,0.00,WeatherDisplay:10.37,2013-02-20 11:10:00,
2013-02-20 06:15:00,26.9,16.3,29.40,WNW,300,5.0,11.5,64,0.00,CLR,SCT,0.00,WeatherDisplay:10.37,2013-02-20 11:15:00,
2013-02-20 06:20:00,26.8,16.2,29.40,West,281,4.8,6.9,64,0.00,CLR,SCT,0.00,WeatherDisplay:10.37,2013-02-20 11:20:00,
2013-02-20 06:25:00,26.6,16.1,29.40,WNW,295,5.1,8.1,64,0.00,CLR,SCT,0.00,WeatherDisplay:10.37,2013-02-20 11:25:00,
2013-02-20 06:30:00,26.5,16.3,29.41,WNW,290,4.7,8.1,65,0.00,CLR,SCT,0.00,WeatherDisplay:10.37,2013-02-20 11:30:00,
2013-02-20 06:35:00,26.3,15.8,29.41,NW,306,5.0,6.9,64,0.00,CLR,SCT,0.00,WeatherDisplay:10.37,2013-02-20 11:35:00,
2013-02-20 06:40:00,26.1,16.6,29.41,West,273,4.8,9.2,67,0.00,CLR,SCT,0.00,WeatherDisplay:10.37,2013-02-20 11:40:00,
2013-02-20 06:45:00,26.0,15.5,29.42,NW,304,5.2,6.9,64,0.00,CLR,SCT,0.00,WeatherDisplay:10.37,2013-02-20 11:45:00,
2013-02-20 06:50:00,26.0,15.5,29.42,WNW,294,3.7,6.9,64,0.00,CLR,SCT,0.00,WeatherDisplay:10.37,2013-02-20 11:50:00,
2013-02-20 06:55:00,25.9,15.4,29.42,WNW,282,4.4,8.1,64,0.00,CLR,SCT,0.00,WeatherDisplay:10.37,2013-02-20 11:55:00,
2013-02-20 07:00:00,25.7,15.9,29.42,WNW,294,3.3,6.9,66,0.00,CLR,SCT,0.00,WeatherDisplay:10.37,2013-02-20 12:00:00,
2013-02-20 07:05:00,25.7,15.6,29.42,West,277,4.6,8.1,65,0.00,CLR,SCT,0.00,WeatherDisplay:10.37,2013-02-20 12:05:00,
2013-02-20 07:10:00,25.6,15.5,29.42,West,272,6.0,6.0,65,0.00,CLR,SCT,0.00,WeatherDisplay:10.37,2013-02-20 12:10:00,
2013-02-20 07:15:00,25.6,15.1,29.43,NW,308,5.0,6.9,64,0.00,CLR,SCT,0.00,WeatherDisplay:10.37,2013-02-20 12:15:00,
2013-02-20 07:20:00,25.6,15.5,29.43,WNW,294,2.7,5.8,65,0.00,CLR,SCT,0.00,WeatherDisplay:10.37,2013-02-20 12:20:00,
2013-02-20 07:25:00,25.6,15.5,29.43,West,271,4.5,5.0,65,0.00,CLR,SCT,0.00,WeatherDisplay:10.37,2013-02-20 12:25:00,
2013-02-20 07:30:00,25.7,15.6,29.43,West,275,1.8,4.6,65,0.00,CLR,SCT,0.00,WeatherDisplay:10.37,2013-02-20 12:30:00,
2013-02-20 07:35:00,25.8,15.6,29.43,WNW,292,3.8,5.8,65,0.00,CLR,SCT,0.00,WeatherDisplay:10.37,2013-02-20 12:35:00,
2013-02-20 07:40:00,26.0,15.5,29.43,WNW,287,3.9,5.8,64,0.00,CLR,SCT,0.00,WeatherDisplay:10.37,2013-02-20 12:40:00,
2013-02-20 07:45:00,26.0,16.5,29.43,WNW,293,3.0,3.5,67,0.00,CLR,SCT,0.00,WeatherDisplay:10.37,2013-02-20 12:45:00,
2013-02-20 07:50:00,26.1,16.3,29.43,WSW,246,1.9,4.0,66,0.00,CLR,SCT,0.00,WeatherDisplay:10.37,2013-02-20 12:50:00,
2013-02-20 07:55:00,26.2,16.0,29.43,West,281,4.7,10.0,65,0.00,CLR,SCT,0.00,WeatherDisplay:10.37,2013-02-20 12:55:00,
2013-02-20 08:00:00,26.3,15.8,29.43,WNW,288,4.2,6.9,64,0.00,CLR,SCT,0.00,WeatherDisplay:10.37,2013-02-20 13:00:00,
2013-02-20 08:05:00,26.4,15.9,29.43,WNW,298,5.2,7.0,64,0.00,CLR,SCT,0.00,WeatherDisplay:10.37,2013-02-20 13:05:00,
2013-02-20 08:10:00,26.3,15.4,29.43,NW,311,5.2,9.2,63,0.00,CLR,SCT,0.00,WeatherDisplay:10.37,2013-02-20 13:10:00,
2013-02-20 08:15:00,26.4,15.1,29.43,West,279,4.4,7.0,62,0.00,CLR,SCT,0.00,WeatherDisplay:10.37,2013-02-20 13:15:00,
2013-02-20 08:20:00,26.4,14.4,29.43,WNW,294,6.2,8.1,60,0.00,CLR,SCT,0.00,WeatherDisplay:10.37,2013-02-20 13:20:00,
2013-02-20 08:25:00,26.5,14.5,29.43,West,273,6.6,10.4,60,0.00,CLR,SCT,0.00,WeatherDisplay:10.37,2013-02-20 13:25:00,
2013-02-20 08:30:00,26.6,14.2,29.43,West,259,5.9,8.1,59,0.00,CLR,SCT,0.00,WeatherDisplay:10.37,2013-02-20 13:30:00,
2013-02-20 08:35:00,26.5,14.5,29.43,West,265,5.2,6.0,60,0.00,CLR,SCT,0.00,WeatherDisplay:10.37,2013-02-20 13:35:00,
2013-02-20 08:40:00,26.3,13.9,29.43,West,267,7.3,10.4,59,0.00,CLR,SCT,0.00,WeatherDisplay:10.37,2013-02-20 13:40:00,
2013-02-20 08:45:00,26.3,14.7,29.43,SW,236,5.8,6.9,61,0.00,CLR,SCT,0.00,WeatherDisplay:10.37,2013-02-20 13:45:00,
2013-02-20 08:50:00,26.6,14.6,29.44,WNW,303,7.2,9.2,60,0.00,CLR,SCT,0.00,WeatherDisplay:10.37,2013-02-20 13:50:00,
2013-02-20 08:55:00,26.6,14.6,29.44,NNW,346,4.7,8.0,60,0.00,CLR,SCT,0.00,WeatherDisplay:10.37,2013-02-20 13:55:00,
2013-02-20 09:00:00,26.8,15.1,29.44,WNW,290,4.4,5.8,61,0.00,CLR,SCT,0.00,WeatherDisplay:10.37,2013-02-20 14:00:00,
2013-02-20 09:05:00,26.9,14.1,29.43,SW,232,3.6,5.8,58,0.00,CLR,SCT,0.00,WeatherDisplay:10.37,2013-02-20 14:05:00,
2013-02-20 09:10:00,27.0,14.6,29.43,WSW,254,3.2,5.8,59,0.00,CLR,SCT,0.00,WeatherDisplay:10.37,2013-02-20 14:10:00,
2013-02-20 09:15:00,26.9,13.7,29.44,NW,304,3.6,8.0,57,0.00,CLR,SCT,0.00,WeatherDisplay:10.37,2013-02-20 14:15:00,
2013-02-20 09:20:00,26.7,13.9,29.44,NNW,345,2.4,6.0,58,0.00,CLR,SCT,0.00,WeatherDisplay:10.37,2013-02-20 14:20:00,
2013-02-20 09:25:00,26.7,14.3,29.44,South,182,4.4,9.2,59,0.00,CLR,SCT,0.00,WeatherDisplay:10.37,2013-02-20 14:25:00,
2013-02-20 09:30:00,26.9,14.5,29.44,WSW,237,3.7,4.6,59,0.00,CLR,SCT,0.00,WeatherDisplay:10.37,2013-02-20 14:30:00,
2013-02-20 09:35:00,26.6,13.4,29.44,ESE,110,5.3,8.1,57,0.00,CLR,SCT,0.00,WeatherDisplay:10.37,2013-02-20 14:35:00,
2013-02-20 09:40:00,26.5,13.3,29.43,West,275,3.0,4.6,57,0.00,CLR,SCT,0.00,WeatherDisplay:10.37,2013-02-20 14:40:00,
2013-02-20 09:45:00,26.5,13.7,29.44,SW,225,2.8,5.8,58,0.00,CLR,SCT,0.00,WeatherDisplay:10.37,2013-02-20 14:45:00,
2013-02-20 09:50:00,26.5,13.3,29.44,WNW,291,2.9,4.6,57,0.00,CLR,SCT,0.00,WeatherDisplay:10.37,2013-02-20 14:50:00,
2013-02-20 09:55:00,26.5,12.9,29.44,West,279,3.9,5.8,56,0.00,CLR,SCT,0.00,WeatherDisplay:10.37,2013-02-20 14:55:00,
2013-02-20 10:00:00,26.5,13.3,29.45,NW,317,5.6,9.0,57,0.00,CLR,SCT,0.00,WeatherDisplay:10.37,2013-02-20 15:00:00,
2013-02-20 10:05:00,26.5,13.7,29.45,NW,317,2.6,6.0,58,0.00,CLR,SCT,0.00,WeatherDisplay:10.37,2013-02-20 15:05:00,
2013-02-20 10:10:00,26.4,14.4,29.45,WNW,289,6.1,8.0,60,0.00,CLR,SCT,0.00,WeatherDisplay:10.37,2013-02-20 15:10:00,
2013-02-20 10:15:00,26.3,14.3,29.45,NNW,327,6.1,14.0,60,0.00,CLR,SCT,0.00,WeatherDisplay:10.37,2013-02-20 15:15:00,
2013-02-20 10:20:00,26.4,14.0,29.45,NNE,23,3.0,5.0,59,0.00,CLR,SCT,0.00,WeatherDisplay:10.37,2013-02-20 15:20:00,
2013-02-20 10:25:00,26.6,13.8,29.45,NNW,327,4.8,9.2,58,0.00,CLR,SCT,0.00,WeatherDisplay:10.37,2013-02-20 15:25:00,
2013-02-20 10:30:00,26.8,13.6,29.45,WSW,245,4.8,9.2,57,0.00,CLR,SCT,0.00,WeatherDisplay:10.37,2013-02-20 15:30:00,
2013-02-20 10:35:00,26.6,13.4,29.45,SSW,194,5.3,9.2,57,0.00,CLR,SCT,0.00,WeatherDisplay:10.37,2013-02-20 15:35:00,
2013-02-20 10:40:00,26.7,13.9,29.45,SW,219,4.2,8.1,58,0.00,CLR,SCT,0.00,WeatherDisplay:10.37,2013-02-20 15:40:00,
2013-02-20 10:45:00,27.2,14.4,29.45,West,269,8.7,10.0,58,0.00,CLR,SCT,0.00,WeatherDisplay:10.37,2013-02-20 15:45:00,
2013-02-20 10:50:00,26.7,13.9,29.45,WNW,286,4.8,8.1,58,0.00,CLR,SCT,0.00,WeatherDisplay:10.37,2013-02-20 15:50:00,
2013-02-20 10:55:00,26.8,14.4,29.45,West,262,5.0,7.0,59,0.00,CLR,SCT,0.00,WeatherDisplay:10.37,2013-02-20 15:55:00,
2013-02-20 11:00:00,26.7,13.5,29.44,WSW,247,3.7,8.1,57,0.00,CLR,SCT,0.00,WeatherDisplay:10.37,2013-02-20 16:00:00,
2013-02-20 11:05:00,26.7,13.1,29.45,WNW,298,5.5,8.1,56,0.00,CLR,SCT,0.00,WeatherDisplay:10.37,2013-02-20 16:05:00,
2013-02-20 11:10:00,26.7,13.5,29.45,WNW,283,3.5,6.9,57,0.00,CLR,SCT,0.00,WeatherDisplay:10.37,2013-02-20 16:10:00,
2013-02-20 11:15:00,26.7,13.5,29.45,West,263,5.1,8.0,57,0.00,CLR,SCT,0.00,WeatherDisplay:10.37,2013-02-20 16:15:00,
2013-02-20 11:20:00,26.5,13.3,29.45,West,261,3.7,4.6,57,0.00,CLR,SCT,0.00,WeatherDisplay:10.37,2013-02-20 16:20:00,
2013-02-20 11:25:00,26.4,13.6,29.45,West,273,4.0,8.1,58,0.00,CLR,SCT,0.00,WeatherDisplay:10.37,2013-02-20 16:25:00,
2013-02-20 11:30:00,26.6,13.8,29.45,West,267,3.0,5.8,58,0.00,CLR,SCT,0.00,WeatherDisplay:10.37,2013-02-20 16:30:00,
2013-02-20 11:35:00,26.6,13.8,29.45,West,279,2.3,6.0,58,0.00,CLR,SCT,0.00,WeatherDisplay:10.37,2013-02-20 16:35:00,
2013-02-20 11:40:00,26.6,13.8,29.44,WNW,283,2.6,4.6,58,0.00,CLR,SCT,0.00,WeatherDisplay:10.37,2013-02-20 16:40:00,
2013-02-20 11:45:00,26.9,13.7,29.44,NW,311,4.8,6.9,57,0.00,CLR,SCT,0.00,WeatherDisplay:10.37,2013-02-20 16:45:00,
2013-02-20 11:50:00,27.0,14.2,29.44,WNW,290,1.1,3.5,58,0.00,CLR,SCT,0.00,WeatherDisplay:10.37,2013-02-20 16:50:00,
2013-02-20 11:55:00,27.4,13.7,29.44,WNW,284,4.6,6.9,56,0.00,CLR,SCT,0.00,WeatherDisplay:10.37,2013-02-20 16:55:00,
2013-02-20 12:00:00,27.1,15.4,29.44,West,281,1.7,5.0,61,0.00,CLR,SCT,0.00,WeatherDisplay:10.37,2013-02-20 17:00:00,
2013-02-20 12:05:00,27.0,13.8,29.44,WNW,302,3.3,6.9,57,0.00,CLR,SCT,0.00,WeatherDisplay:10.37,2013-02-20 17:05:00,
2013-02-20 12:10:00,26.9,14.5,29.44,WNW,292,5.1,6.9,59,0.00,CLR,SCT,0.00,WeatherDisplay:10.37,2013-02-20 17:10:00,
2013-02-20 12:15:00,27.0,14.9,29.43,WSW,244,3.3,5.0,60,0.00,CLR,SCT,0.00,WeatherDisplay:10.37,2013-02-20 17:15:00,
2013-02-20 12:20:00,26.9,13.7,29.43,WNW,283,3.6,5.8,57,0.00,CLR,SCT,0.00,WeatherDisplay:10.37,2013-02-20 17:20:00,
2013-02-20 12:25:00,26.9,13.7,29.43,WSW,241,7.7,9.2,57,0.00,CLR,SCT,0.00,WeatherDisplay:10.37,2013-02-20 17:25:00,
2013-02-20 12:30:00,27.1,13.5,29.43,West,280,3.7,9.2,56,0.00,CLR,SCT,0.00,WeatherDisplay:10.37,2013-02-20 17:30:00,
2013-02-20 12:35:00,27.4,13.7,29.43,WNW,287,4.1,9.2,56,0.00,CLR,SCT,0.00,WeatherDisplay:10.37,2013-02-20 17:35:00,
2013-02-20 12:40:00,27.4,14.1,29.43,WNW,289,3.5,5.0,57,0.00,CLR,SCT,0.00,WeatherDisplay:10.37,2013-02-20 17:40:00,
2013-02-20 12:45:00,27.2,13.1,29.43,SW,217,4.4,4.6,55,0.00,CLR,SCT,0.00,WeatherDisplay:10.37,2013-02-20 17:45:00,
2013-02-20 12:50:00,27.2,14.0,29.43,WNW,290,3.3,6.0,57,0.00,CLR,SCT,0.00,WeatherDisplay:10.37,2013-02-20 17:50:00,
2013-02-20 12:55:00,27.2,13.1,29.42,NW,309,5.3,9.2,55,0.00,CLR,SCT,0.00,WeatherDisplay:10.37,2013-02-20 17:55:00,
2013-02-20 13:00:00,27.1,12.2,29.42,WSW,254,3.6,8.1,53,0.00,CLR,SCT,0.00,WeatherDisplay:10.37,2013-02-20 18:00:00,
2013-02-20 13:05:00,27.2,12.3,29.43,West,271,4.2,8.1,53,0.00,CLR,SCT,0.00,WeatherDisplay:10.37,2013-02-20 18:05:00,
2013-02-20 13:10:00,27.2,11.9,29.43,West,276,5.3,9.2,52,0.00,CLR,SCT,0.00,WeatherDisplay:10.37,2013-02-20 18:10:00,
2013-02-20 13:15:00,27.4,12.1,29.42,NW,321,4.7,6.9,52,0.00,CLR,SCT,0.00,WeatherDisplay:10.37,2013-02-20 18:15:00,
2013-02-20 13:20:00,27.8,12.0,29.43,WNW,288,6.8,9.2,51,0.00,CLR,SCT,0.00,WeatherDisplay:10.37,2013-02-20 18:20:00,
2013-02-20 13:25:00,27.5,11.7,29.43,WNW,282,5.2,9.2,51,0.00,CLR,SCT,0.00,WeatherDisplay:10.37,2013-02-20 18:25:00,
2013-02-20 13:30:00,27.3,12.4,29.43,West,267,4.8,6.9,53,0.00,CLR,SCT,0.00,WeatherDisplay:10.37,2013-02-20 18:30:00,
2013-02-20 13:35:00,27.3,12.0,29.43,WNW,298,6.0,9.2,52,0.00,CLR,SCT,0.00,WeatherDisplay:10.37,2013-02-20 18:35:00,
2013-02-20 13:40:00,27.3,12.0,29.43,West,267,5.2,8.1,52,0.00,CLR,SCT,0.00,WeatherDisplay:10.37,2013-02-20 18:40:00,
2013-02-20 13:45:00,27.3,11.5,29.43,WNW,296,5.9,6.9,51,0.00,CLR,SCT,0.00,WeatherDisplay:10.37,2013-02-20 18:45:00,
2013-02-20 13:50:00,27.5,13.4,29.43,NW,319,5.1,7.0,55,0.00,CLR,SCT,0.00,WeatherDisplay:10.37,2013-02-20 18:50:00,
2013-02-20 13:55:00,27.3,11.5,29.43,WSW,252,5.2,10.4,51,0.00,CLR,SCT,0.00,WeatherDisplay:10.37,2013-02-20 18:55:00,
2013-02-20 14:00:00,27.0,11.3,29.43,WNW,290,6.9,9.2,51,0.00,CLR,SCT,0.00,WeatherDisplay:10.37,2013-02-20 19:00:00,
2013-02-20 14:05:00,27.0,10.4,29.43,West,266,3.9,9.2,49,0.00,CLR,SCT,0.00,WeatherDisplay:10.37,2013-02-20 19:05:00,
2013-02-20 14:10:00,27.3,11.5,29.43,WNW,289,4.3,9.2,51,0.00,CLR,SCT,0.00,WeatherDisplay:10.37,2013-02-20 19:10:00,
2013-02-20 14:15:00,27.3,12.4,29.43,West,277,4.2,6.0,53,0.00,CLR,SCT,0.00,WeatherDisplay:10.37,2013-02-20 19:15:00,
2013-02-20 14:20:00,27.0,11.7,29.43,NW,309,5.6,9.2,52,0.00,CLR,SCT,0.00,WeatherDisplay:10.37,2013-02-20 19:20:00,
2013-02-20 14:25:00,26.8,12.4,29.44,WNW,296,5.5,11.5,54,0.00,CLR,SCT,0.00,WeatherDisplay:10.37,2013-02-20 19:25:00,
2013-02-20 14:30:00,26.5,12.5,29.44,West,261,7.1,8.1,55,0.00,CLR,SCT,0.00,WeatherDisplay:10.37,2013-02-20 19:30:00,
2013-02-20 14:35:00,26.5,11.2,29.43,WNW,298,6.0,9.0,52,0.00,CLR,SCT,0.00,WeatherDisplay:10.37,2013-02-20 19:35:00,
2013-02-20 14:40:00,26.5,11.7,29.44,WNW,290,2.7,5.0,53,0.00,CLR,SCT,0.00,WeatherDisplay:10.37,2013-02-20 19:40:00,
2013-02-20 14:45:00,26.9,12.5,29.44,NNW,339,6.1,9.2,54,0.00,CLR,SCT,0.00,WeatherDisplay:10.37,2013-02-20 19:45:00,
2013-02-20 14:50:00,27.1,13.1,29.45,NW,321,4.4,9.2,55,0.00,CLR,SCT,0.00,WeatherDisplay:10.37,2013-02-20 19:50:00,
2013-02-20 14:55:00,27.1,14.3,29.44,SW,219,7.1,7.1,58,0.00,CLR,SCT,0.00,WeatherDisplay:10.37,2013-02-20 19:55:00,
2013-02-20 15:00:00,26.9,12.9,29.44,WNW,296,4.8,10.4,55,0.00,CLR,SCT,0.00,WeatherDisplay:10.37,2013-02-20 20:00:00,
2013-02-20 15:05:00,26.7,13.1,29.45,West,273,3.5,5.0,56,0.00,CLR,SCT,0.00,WeatherDisplay:10.37,2013-02-20 20:05:00,
2013-02-20 15:10:00,26.5,12.5,29.45,SSE,150,4.6,6.9,55,0.00,CLR,SCT,0.00,WeatherDisplay:10.37,2013-02-20 20:10:00,
2013-02-20 15:15:00,26.3,12.7,29.45,West,266,4.0,4.6,56,0.00,CLR,SCT,0.00,WeatherDisplay:10.37,2013-02-20 20:15:00,
2013-02-20 15:20:00,26.5,12.1,29.45,West,269,4.3,5.8,54,0.00,CLR,SCT,0.00,WeatherDisplay:10.37,2013-02-20 20:20:00,
2013-02-20 15:25:00,26.7,12.3,29.45,West,273,4.3,6.9,54,0.00,CLR,SCT,0.00,WeatherDisplay:10.37,2013-02-20 20:25:00,
2013-02-20 15:30:00,26.5,12.1,29.45,NNW,340,5.4,8.1,54,0.00,CLR,SCT,0.00,WeatherDisplay:10.37,2013-02-20 20:30:00,
2013-02-20 15:35:00,26.2,12.2,29.46,WSW,240,5.3,10.4,55,0.00,CLR,SCT,0.00,WeatherDisplay:10.37,2013-02-20 20:35:00,
2013-02-20 15:40:00,26.2,12.2,29.45,WNW,303,5.1,9.2,55,0.00,CLR,SCT,0.00,WeatherDisplay:10.37,2013-02-20 20:40:00,
2013-02-20 15:45:00,26.3,12.7,29.46,WNW,292,4.1,6.9,56,0.00,CLR,SCT,0.00,WeatherDisplay:10.37,2013-02-20 20:45:00,
2013-02-20 15:50:00,26.4,12.0,29.46,WNW,290,5.3,8.1,54,0.00,CLR,SCT,0.00,WeatherDisplay:10.37,2013-02-20 20:50:00,
2013-02-20 15:55:00,26.2,12.2,29.46,WNW,284,6.6,11.5,55,0.00,CLR,SCT,0.00,WeatherDisplay:10.37,2013-02-20 20:55:00,
2013-02-20 16:00:00,26.0,12.8,29.47,West,270,5.5,8.1,57,0.00,CLR,SCT,0.00,WeatherDisplay:10.37,2013-02-20 21:00:00,
2013-02-20 16:05:00,25.7,12.9,29.47,WNW,293,3.9,5.8,58,0.00,CLR,SCT,0.00,WeatherDisplay:10.37,2013-02-20 21:05:00,
2013-02-20 16:10:00,25.7,13.7,29.47,WNW,290,4.9,10.0,60,0.00,CLR,SCT,0.00,WeatherDisplay:10.37,2013-02-20 21:10:00,
2013-02-20 16:15:00,25.6,12.9,29.47,WNW,286,4.6,6.9,58,0.00,CLR,SCT,0.00,WeatherDisplay:10.37,2013-02-20 21:15:00,
2013-02-20 16:20:00,25.6,13.6,29.47,NW,309,3.5,5.8,60,0.00,CLR,SCT,0.00,WeatherDisplay:10.37,2013-02-20 21:20:00,
2013-02-20 16:25:00,25.6,12.9,29.47,West,261,4.7,6.9,58,0.00,CLR,SCT,0.00,WeatherDisplay:10.37,2013-02-20 21:25:00,
2013-02-20 16:30:00,25.6,12.9,29.48,WNW,296,7.3,11.5,58,0.00,CLR,SCT,0.00,WeatherDisplay:10.37,2013-02-20 21:30:00,
2013-02-20 16:35:00,25.5,13.5,29.48,WNW,284,7.4,10.0,60,0.00,CLR,SCT,0.00,WeatherDisplay:10.37,2013-02-20 21:35:00,
2013-02-20 16:40:00,25.4,13.4,29.48,WNW,285,4.7,6.9,60,0.00,CLR,SCT,0.00,WeatherDisplay:10.37,2013-02-20 21:40:00,
2013-02-20 16:45:00,25.5,13.5,29.48,WNW,300,3.7,5.8,60,0.00,CLR,SCT,0.00,WeatherDisplay:10.37,2013-02-20 21:45:00,
2013-02-20 16:50:00,25.4,13.8,29.48,NNW,336,5.1,7.0,61,0.00,CLR,SCT,0.00,WeatherDisplay:10.37,2013-02-20 21:50:00,
2013-02-20 16:55:00,25.4,12.7,29.48,WNW,300,5.3,11.0,58,0.00,CLR,SCT,0.00,WeatherDisplay:10.37,2013-02-20 21:55:00,
2013-02-20 17:00:00,25.4,11.5,29.48,NNE,19,7.3,11.5,55,0.00,CLR,SCT,0.00,WeatherDisplay:10.37,2013-02-20 22:00:00,
2013-02-20 17:05:00,25.3,12.6,29.48,West,273,2.7,4.6,58,0.00,CLR,SCT,0.00,WeatherDisplay:10.37,2013-02-20 22:05:00,
2013-02-20 17:10:00,25.2,12.9,29.49,West,271,5.3,8.1,59,0.00,CLR,SCT,0.00,WeatherDisplay:10.37,2013-02-20 22:10:00,
2013-02-20 17:15:00,24.9,12.6,29.49,NW,307,4.9,9.2,59,0.00,CLR,SCT,0.00,WeatherDisplay:10.37,2013-02-20 22:15:00,
2013-02-20 17:20:00,24.8,13.2,29.49,North,5,5.2,9.0,61,0.00,CLR,SCT,0.00,WeatherDisplay:10.37,2013-02-20 22:20:00,
2013-02-20 17:25:00,24.7,12.4,29.49,West,260,6.9,11.5,59,0.00,CLR,SCT,0.00,WeatherDisplay:10.37,2013-02-20 22:25:00,
2013-02-20 17:30:00,24.4,12.9,29.49,NW,318,6.6,11.5,61,0.00,CLR,SCT,0.00,WeatherDisplay:10.37,2013-02-20 22:30:00,
2013-02-20 17:35:00,24.2,12.3,29.49,WNW,292,5.6,10.4,60,0.00,CLR,SCT,0.00,WeatherDisplay:10.37,2013-02-20 22:35:00,
2013-02-20 17:40:00,24.0,12.5,29.49,WNW,290,5.0,6.9,61,0.00,CLR,SCT,0.00,WeatherDisplay:10.37,2013-02-20 22:40:00,
2013-02-20 17:45:00,23.9,12.4,29.50,West,271,5.2,8.1,61,0.00,CLR,SCT,0.00,WeatherDisplay:10.37,2013-02-20 22:45:00,
2013-02-20 17:50:00,23.8,12.7,29.50,WSW,238,3.6,4.6,62,0.00,CLR,SCT,0.00,WeatherDisplay:10.37,2013-02-20 22:50:00,
2013-02-20 17:55:00,23.7,10.7,29.51,WNW,290,4.2,11.5,57,0.00,CLR,SCT,0.00,WeatherDisplay:10.37,2013-02-20 22:55:00,
2013-02-20 18:00:00,23.8,10.4,29.51,SW,226,4.5,9.2,56,0.00,CLR,SCT,0.00,WeatherDisplay:10.37,2013-02-20 23:00:00,
2013-02-20 18:05:00,23.8,10.4,29.51,WNW,290,2.2,6.9,56,0.00,CLR,SCT,0.00,WeatherDisplay:10.37,2013-02-20 23:05:00,
2013-02-20 18:10:00,23.7,10.3,29.51,WNW,288,4.0,4.0,56,0.00,CLR,SCT,0.00,WeatherDisplay:10.37,2013-02-20 23:10:00,
2013-02-20 18:15:00,23.6,10.2,29.51,NW,311,5.0,8.0,56,0.00,CLR,SCT,0.00,WeatherDisplay:10.37,2013-02-20 23:15:00,
2013-02-20 18:20:00,23.5,9.7,29.51,WNW,287,4.2,8.1,55,0.00,CLR,SCT,0.00,WeatherDisplay:10.37,2013-02-20 23:20:00,
2013-02-20 18:25:00,23.4,9.6,29.51,WNW,285,6.7,9.2,55,0.00,CLR,SCT,0.00,WeatherDisplay:10.37,2013-02-20 23:25:00,
2013-02-20 18:30:00,23.4,9.2,29.52,WSW,252,5.1,8.1,54,0.00,CLR,SCT,0.00,WeatherDisplay:10.37,2013-02-20 23:30:00,
2013-02-20 18:35:00,23.3,9.9,29.52,West,279,3.9,6.9,56,0.00,CLR,SCT,0.00,WeatherDisplay:10.37,2013-02-20 23:35:00,
2013-02-20 18:40:00,23.1,9.3,29.52,West,263,4.3,6.0,55,0.00,CLR,SCT,0.00,WeatherDisplay:10.37,2013-02-20 23:40:00,
2013-02-20 18:45:00,23.0,8.8,29.52,WSW,255,4.3,8.1,54,0.00,CLR,SCT,0.00,WeatherDisplay:10.37,2013-02-20 23:45:00,
2013-02-20 18:50:00,22.9,8.3,29.53,WNW,295,5.5,8.1,53,0.00,CLR,SCT,0.00,WeatherDisplay:10.37,2013-02-20 23:50:00,
2013-02-20 18:55:00,22.8,8.6,29.53,WNW,301,4.3,9.0,54,0.00,CLR,SCT,0.00,WeatherDisplay:10.37,2013-02-20 23:55:00,
2013-02-20 19:00:00,22.7,8.5,29.53,WNW,292,3.6,4.6,54,0.00,CLR,SCT,0.00,WeatherDisplay:10.37,2013-02-21 00:00:00,
2013-02-20 19:05:00,22.5,9.5,29.53,West,259,3.9,6.0,57,0.00,CLR,SCT,0.00,WeatherDisplay:10.37,2013-02-21 00:05:00,
2013-02-20 19:10:00,22.3,9.4,29.53,West,281,2.6,3.5,57,0.00,CLR,SCT,0.00,WeatherDisplay:10.37,2013-02-21 00:10:00,
2013-02-20 19:15:00,22.2,9.3,29.54,West,279,5.6,8.1,57,0.00,CLR,SCT,0.00,WeatherDisplay:10.37,2013-02-21 00:15:00,
2013-02-20 19:20:00,22.3,9.4,29.55,WNW,286,5.0,8.0,57,0.00,CLR,SCT,0.00,WeatherDisplay:10.37,2013-02-21 00:20:00,
2013-02-20 19:25:00,22.1,9.2,29.54,WNW,285,4.9,6.9,57,0.00,CLR,SCT,0.00,WeatherDisplay:10.37,2013-02-21 00:25:00,
2013-02-20 19:30:00,22.0,9.8,29.54,WNW,288,4.3,6.9,59,0.00,CLR,SCT,0.00,WeatherDisplay:10.37,2013-02-21 00:30:00,
2013-02-20 19:35:00,22.0,10.2,29.53,WNW,288,5.2,6.9,60,0.00,CLR,SCT,0.00,WeatherDisplay:10.37,2013-02-21 00:35:00,
2013-02-20 19:40:00,21.8,10.4,29.53,West,275,6.4,6.9,61,0.00,CLR,SCT,0.00,WeatherDisplay:10.37,2013-02-21 00:40:00,
2013-02-20 19:45:00,21.7,10.7,29.53,WNW,295,6.1,8.1,62,0.00,CLR,SCT,0.00,WeatherDisplay:10.37,2013-02-21 00:45:00,
2013-02-20 19:50:00,21.7,10.3,29.53,West,269,7.1,11.5,61,0.00,CLR,SCT,0.00,WeatherDisplay:10.37,2013-02-21 00:50:00,
2013-02-20 19:55:00,21.6,10.9,29.54,West,280,6.0,6.0,63,0.00,CLR,SCT,0.00,WeatherDisplay:10.37,2013-02-21 00:55:00,
2013-02-20 20:00:00,21.4,10.7,29.54,West,267,5.3,9.2,63,0.00,CLR,SCT,0.00,WeatherDisplay:10.37,2013-02-21 01:00:00,
2013-02-20 20:05:00,21.4,10.7,29.54,WNW,300,5.9,6.9,63,0.00,CLR,SCT,0.00,WeatherDisplay:10.37,2013-02-21 01:05:00,
2013-02-20 20:10:00,21.3,10.7,29.53,NW,306,3.3,5.8,63,0.00,CLR,SCT,0.00,WeatherDisplay:10.37,2013-02-21 01:10:00,
2013-02-20 20:15:00,21.4,10.4,29.54,WSW,253,3.0,6.9,62,0.00,CLR,SCT,0.00,WeatherDisplay:10.37,2013-02-21 01:15:00,
2013-02-20 20:20:00,21.3,10.7,29.54,West,273,2.5,3.5,63,0.00,CLR,SCT,0.00,WeatherDisplay:10.37,2013-02-21 01:20:00,
2013-02-20 20:25:00,21.2,10.6,29.53,West,281,2.4,5.8,63,0.00,CLR,SCT,0.00,WeatherDisplay:10.37,2013-02-21 01:25:00,
2013-02-20 20:30:00,21.2,10.6,29.54,NNW,332,3.9,5.8,63,0.00,CLR,SCT,0.00,WeatherDisplay:10.37,2013-02-21 01:30:00,
2013-02-20 20:35:00,21.1,10.5,29.54,WNW,289,4.0,5.0,63,0.00,CLR,SCT,0.00,WeatherDisplay:10.37,2013-02-21 01:35:00,
2013-02-20 20:40:00,21.1,10.8,29.53,WSW,257,4.6,5.8,64,0.00,CLR,SCT,0.00,WeatherDisplay:10.37,2013-02-21 01:40:00,
2013-02-20 20:45:00,21.1,10.5,29.54,West,277,4.8,6.9,63,0.00,CLR,SCT,0.00,WeatherDisplay:10.37,2013-02-21 01:45:00,
2013-02-20 20:50:00,21.0,11.1,29.54,WNW,283,4.9,6.9,65,0.00,CLR,SCT,0.00,WeatherDisplay:10.37,2013-02-21 01:50:00,
2013-02-20 20:55:00,20.9,11.0,29.55,West,271,6.3,8.1,65,0.00,CLR,SCT,0.00,WeatherDisplay:10.37,2013-02-21 01:55:00,
2013-02-20 21:00:00,21.0,10.7,29.54,West,277,5.5,6.9,64,0.00,CLR,SCT,0.00,WeatherDisplay:10.37,2013-02-21 02:00:00,
2013-02-20 21:05:00,21.0,10.7,29.54,West,281,5.6,5.8,64,0.00,CLR,SCT,0.00,WeatherDisplay:10.37,2013-02-21 02:05:00,
2013-02-20 21:10:00,21.0,10.4,29.55,North,9,6.7,11.5,63,0.00,CLR,SCT,0.00,WeatherDisplay:10.37,2013-02-21 02:10:00,
2013-02-20 21:15:00,21.0,10.7,29.55,WNW,299,3.7,5.8,64,0.00,CLR,SCT,0.00,WeatherDisplay:10.37,2013-02-21 02:15:00,
2013-02-20 21:20:00,20.8,10.9,29.55,West,275,5.1,6.9,65,0.00,CLR,SCT,0.00,WeatherDisplay:10.37,2013-02-21 02:20:00,
2013-02-20 21:25:00,20.7,10.4,29.55,WNW,289,4.6,5.8,64,0.00,CLR,SCT,0.00,WeatherDisplay:10.37,2013-02-21 02:25:00,
2013-02-20 21:30:00,20.7,10.4,29.55,WNW,295,3.2,4.6,64,0.00,CLR,SCT,0.00,WeatherDisplay:10.37,2013-02-21 02:30:00,
2013-02-20 21:35:00,20.7,10.4,29.55,West,280,2.4,4.6,64,0.00,CLR,SCT,0.00,WeatherDisplay:10.37,2013-02-21 02:35:00,
2013-02-20 21:40:00,20.7,10.4,29.56,West,270,5.3,6.9,64,0.00,CLR,SCT,0.00,WeatherDisplay:10.37,2013-02-21 02:40:00,
2013-02-20 21:45:00,20.7,10.4,29.55,West,275,5.2,6.0,64,0.00,CLR,SCT,0.00,WeatherDisplay:10.37,2013-02-21 02:45:00,
2013-02-20 21:50:00,20.7,10.4,29.55,West,276,5.0,6.9,64,0.00,CLR,SCT,0.00,WeatherDisplay:10.37,2013-02-21 02:50:00,
2013-02-20 21:55:00,20.8,10.5,29.56,West,281,4.5,6.9,64,0.00,CLR,SCT,0.00,WeatherDisplay:10.37,2013-02-21 02:55:00,
2013-02-20 22:00:00,20.6,10.7,29.56,West,281,4.6,6.9,65,0.00,CLR,SCT,0.00,WeatherDisplay:10.37,2013-02-21 03:00:00,
2013-02-20 22:05:00,20.7,10.4,29.56,West,269,4.9,6.9,64,0.00,CLR,SCT,0.00,WeatherDisplay:10.37,2013-02-21 03:05:00,
2013-02-20 22:10:00,20.6,10.7,29.57,West,278,5.9,6.9,65,0.00,CLR,SCT,0.00,WeatherDisplay:10.37,2013-02-21 03:10:00,
2013-02-20 22:15:00,20.6,10.7,29.57,West,281,7.7,7.7,65,0.00,CLR,SCT,0.00,WeatherDisplay:10.37,2013-02-21 03:15:00,
2013-02-20 22:20:00,20.5,10.6,29.57,West,276,4.0,5.8,65,0.00,CLR,SCT,0.00,WeatherDisplay:10.37,2013-02-21 03:20:00,
2013-02-20 22:25:00,20.4,10.5,29.56,NW,313,5.0,5.8,65,0.00,CLR,SCT,0.00,WeatherDisplay:10.37,2013-02-21 03:25:00,
2013-02-20 22:30:00,20.3,10.7,29.56,WNW,284,4.1,8.1,66,0.00,CLR,SCT,0.00,WeatherDisplay:10.37,2013-02-21 03:30:00,
2013-02-20 22:35:00,20.3,10.7,29.56,West,263,3.1,5.8,66,0.00,CLR,SCT,0.00,WeatherDisplay:10.37,2013-02-21 03:35:00,
2013-02-20 22:40:00,20.3,10.7,29.57,West,278,2.4,5.8,66,0.00,CLR,SCT,0.00,WeatherDisplay:10.37,2013-02-21 03:40:00,
2013-02-20 22:45:00,20.1,10.9,29.57,West,272,4.4,4.6,67,0.00,CLR,SCT,0.00,WeatherDisplay:10.37,2013-02-21 03:45:00,
2013-02-20 22:50:00,20.2,10.6,29.57,West,280,4.8,7.0,66,0.00,CLR,SCT,0.00,WeatherDisplay:10.37,2013-02-21 03:50:00,
2013-02-20 22:55:00,20.3,10.7,29.57,WNW,288,3.3,4.6,66,0.00,CLR,SCT,0.00,WeatherDisplay:10.37,2013-02-21 03:55:00,
2013-02-20 23:00:00,20.2,11.3,29.57,NNW,329,4.7,5.0,68,0.00,CLR,SCT,0.00,WeatherDisplay:10.37,2013-02-21 04:00:00,
2013-02-20 23:05:00,20.1,10.9,29.58,West,269,4.0,4.6,67,0.00,CLR,SCT,0.00,WeatherDisplay:10.37,2013-02-21 04:05:00,
2013-02-20 23:10:00,20.2,10.6,29.58,NW,306,4.3,6.9,66,0.00,CLR,SCT,0.00,WeatherDisplay:10.37,2013-02-21 04:10:00,
2013-02-20 23:15:00,20.1,11.2,29.58,West,263,3.7,6.0,68,0.00,CLR,SCT,0.00,WeatherDisplay:10.37,2013-02-21 04:15:00,
2013-02-20 23:20:00,20.2,11.0,29.58,WNW,282,2.4,3.5,67,0.00,CLR,SCT,0.00,WeatherDisplay:10.37,2013-02-21 04:20:00,
2013-02-20 23:25:00,20.0,11.1,29.58,WNW,294,3.5,4.6,68,0.00,CLR,SCT,0.00,WeatherDisplay:10.37,2013-02-21 04:25:00,
2013-02-20 23:30:00,19.9,11.0,29.58,West,278,2.3,4.0,68,0.00,CLR,SCT,0.00,WeatherDisplay:10.37,2013-02-21 04:30:00,
2013-02-20 23:35:00,19.9,11.4,29.58,West,281,3.4,5.8,69,0.00,CLR,SCT,0.00,WeatherDisplay:10.37,2013-02-21 04:35:00,
2013-02-20 23:40:00,20.0,11.1,29.58,West,269,3.7,5.0,68,0.00,CLR,SCT,0.00,WeatherDisplay:10.37,2013-02-21 04:40:00,
2013-02-20 23:45:00,20.2,11.3,29.58,WSW,256,5.7,7.0,68,0.00,CLR,SCT,0.00,WeatherDisplay:10.37,2013-02-21 04:45:00,
2013-02-20 23:50:00,20.3,11.4,29.58,West,267,4.0,6.9,68,0.00,CLR,SCT,0.00,WeatherDisplay:10.37,2013-02-21 04:50:00,
2013-02-20 23:55:00,20.3,11.7,29.58,West,271,3.1,5.0,69,0.00,CLR,SCT,0.00,WeatherDisplay:10.37,2013-02-21 04:55:00,